Lewisburg, West Virginia
Current Conditions -  °F | °C
As of 11:15 AM on Thursday 18 Dec 2014 (Local Time) from KLWB Reporting Station
Scattered Clouds Scattered Clouds  
Wind Chill: 26°   Ceiling: Unl
Heat Index: 32°   Visibility: 10mi
Dew Point: 21°   Wind: 6mph
Humidity: 65%   Direction: 270°W
Pressure: 30.15"   Gusts: NA
Location:  37.8°N, 80.45°W
Report Text: KLWB 181615Z AUTO 27005KT 10SM SCT120 00/M06 A3015 RMK AO2 T10021060
Loading
Personal Weather Stations






























Interactive Weather Map New forecast layout! Learn more

10-Day Weather Forecast

Advertisements
Track Severe Weather on mobile